createdAt,value
2022-11-21T00:02:50.960Z,135.68
2022-11-21T00:05:55.287Z,133.10
2022-11-21T00:09:00.081Z,118.03
2022-11-21T00:12:05.042Z,116.25
2022-11-21T00:15:10.043Z,100.40
2022-11-21T00:18:14.402Z,131.30
2022-11-21T00:21:20.233Z,84.18
2022-11-21T00:24:25.014Z,55.10
2022-11-21T00:27:29.419Z,37.37
2022-11-21T00:30:33.687Z,23.63
2022-11-21T00:33:39.928Z,22.48
2022-11-21T00:36:44.313Z,29.88
2022-11-21T00:39:48.666Z,22.00
2022-11-21T00:42:53.272Z,19.75
2022-11-21T00:45:57.480Z,23.67
2022-11-21T00:49:02.037Z,24.63
2022-11-21T00:52:06.228Z,20.42
2022-11-21T00:55:29.345Z,20.38
2022-11-21T00:58:52.113Z,22.13
2022-11-21T01:01:56.335Z,21.00
2022-11-21T01:05:00.656Z,27.60
2022-11-21T01:08:05.423Z,27.17
2022-11-21T01:11:13.516Z,33.83
2022-11-21T01:14:17.976Z,26.77
2022-11-21T01:17:22.196Z,21.75
2022-11-21T01:20:26.919Z,25.20
2022-11-21T01:23:31.628Z,24.27
2022-11-21T01:26:38.884Z,12.63
2022-11-21T01:29:43.233Z,17.60
2022-11-21T01:32:58.719Z,37.25
2022-11-21T01:36:10.017Z,24.90
2022-11-21T01:39:14.585Z,24.70
2022-11-21T01:42:19.135Z,30.25
2022-11-21T01:45:57.216Z,23.83
2022-11-21T01:49:43.500Z,26.45
2022-11-21T01:52:47.824Z,17.97
2022-11-21T01:55:53.337Z,15.38
2022-11-21T01:59:38.012Z,15.30
2022-11-21T02:03:06.027Z,12.65
2022-11-21T02:06:12.959Z,10.60
2022-11-21T02:09:17.379Z,12.00
2022-11-21T02:12:30.846Z,10.80
2022-11-21T02:15:55.534Z,11.18
2022-11-21T02:18:59.895Z,8.18
2022-11-21T02:22:13.407Z,8.23
2022-11-21T02:25:28.022Z,8.18
2022-11-21T02:28:50.824Z,6.15
2022-11-21T02:32:21.705Z,18.98
2022-11-21T02:35:26.181Z,12.30
2022-11-21T02:38:38.057Z,8.10
2022-11-21T02:41:49.857Z,9.73
2022-11-21T02:45:20.402Z,29.73
2022-11-21T02:48:25.171Z,144.15
2022-11-21T02:51:29.549Z,314.13
2022-11-21T02:54:33.765Z,14.10
2022-11-21T02:57:38.459Z,9.18
2022-11-21T03:01:02.702Z,12.43
2022-11-21T03:04:07.731Z,18.52
2022-11-21T03:07:12.292Z,8.30
2022-11-21T03:10:17.167Z,6.90
2022-11-21T03:13:21.505Z,17.55
2022-11-21T03:16:25.710Z,523.30
2022-11-21T03:19:48.233Z,12.27
2022-11-21T03:22:55.154Z,9.80
2022-11-21T03:26:01.209Z,9.88
2022-11-21T03:29:24.699Z,13.02
2022-11-21T03:32:47.330Z,9.98
2022-11-21T03:35:52.191Z,8.57
2022-11-21T03:39:01.225Z,7.18
2022-11-21T03:42:05.730Z,13.05
2022-11-21T03:45:10.609Z,12.73
2022-11-21T03:48:51.887Z,18.30
2022-11-21T03:51:56.230Z,11.45
2022-11-21T03:55:00.878Z,9.60
2022-11-21T03:58:06.194Z,7.72
2022-11-21T04:01:10.855Z,9.98
2022-11-21T04:04:14.974Z,7.78
2022-11-21T04:07:19.743Z,7.72
2022-11-21T04:10:25.145Z,10.20
2022-11-21T04:13:30.042Z,8.07
2022-11-21T04:16:34.493Z,9.43
2022-11-21T04:19:39.104Z,8.77
2022-11-21T04:23:20.064Z,11.50
2022-11-21T04:26:24.217Z,7.95
2022-11-21T04:29:28.919Z,6.03
2022-11-21T04:32:51.788Z,8.52
2022-11-21T04:35:56.041Z,23.55
2022-11-21T04:39:02.289Z,23.38
2022-11-21T04:42:06.799Z,21.63
2022-11-21T04:45:11.394Z,8.35
2022-11-21T04:48:15.690Z,14.25
2022-11-21T04:51:38.430Z,7.68
2022-11-21T04:55:01.207Z,16.08
2022-11-21T04:58:06.588Z,19.20
2022-11-21T05:01:30.184Z,10.13
2022-11-21T05:04:34.610Z,12.07
2022-11-21T05:07:39.581Z,16.05
2022-11-21T05:11:03.482Z,5.13
2022-11-21T05:14:07.797Z,11.77
2022-11-21T05:17:12.416Z,8.50
2022-11-21T05:20:17.078Z,11.40
2022-11-21T05:23:21.403Z,14.13
2022-11-21T05:26:44.294Z,9.10
2022-11-21T05:29:48.593Z,7.45
2022-11-21T05:32:58.591Z,6.95
2022-11-21T05:36:03.081Z,9.95
2022-11-21T05:39:07.725Z,7.63
2022-11-21T05:42:12.170Z,9.60
2022-11-21T05:45:16.975Z,7.07
2022-11-21T05:48:21.169Z,7.15
2022-11-21T05:51:25.680Z,13.65
2022-11-21T05:54:30.293Z,11.45
2022-11-21T05:57:34.747Z,7.17
2022-11-21T06:00:40.027Z,11.40
2022-11-21T06:03:44.964Z,10.52
2022-11-21T06:06:49.230Z,14.57
2022-11-21T06:09:53.367Z,7.60
2022-11-21T06:13:01.885Z,8.95
2022-11-21T06:16:10.268Z,8.45
2022-11-21T06:19:14.699Z,6.57
2022-11-21T06:22:19.207Z,11.07
2022-11-21T06:25:41.910Z,20.45
2022-11-21T06:28:47.609Z,5.38
2022-11-21T06:32:10.012Z,23.48
2022-11-21T06:35:33.865Z,18.58
2022-11-21T06:38:38.889Z,13.32
2022-11-21T06:41:43.681Z,11.88
2022-11-21T06:44:47.834Z,12.10
2022-11-21T06:47:52.155Z,10.77
2022-11-21T06:50:56.423Z,22.92
2022-11-21T06:54:01.068Z,9.77
2022-11-21T06:57:23.927Z,27.67
2022-11-21T07:00:29.357Z,33.28
2022-11-21T07:03:34.560Z,17.27
2022-11-21T07:06:39.177Z,13.93
2022-11-21T07:09:45.845Z,15.65
2022-11-21T07:13:08.291Z,17.48
2022-11-21T07:16:16.406Z,20.77
2022-11-21T07:19:41.005Z,20.95
2022-11-21T07:22:46.061Z,17.10
2022-11-21T07:25:50.305Z,10.10
2022-11-21T07:28:54.825Z,16.85
2022-11-21T07:31:59.125Z,17.55
2022-11-21T07:35:03.611Z,43.58
2022-11-21T07:38:08.034Z,35.63
2022-11-21T07:41:12.469Z,27.92
2022-11-21T07:44:16.929Z,45.72
2022-11-21T07:47:21.055Z,46.53
2022-11-21T07:50:25.386Z,60.25
2022-11-21T07:53:48.121Z,47.58
2022-11-21T07:57:28.450Z,53.55
2022-11-21T08:00:35.021Z,54.85
2022-11-21T08:03:39.617Z,24.85
2022-11-21T08:06:44.053Z,23.73
2022-11-21T08:09:48.612Z,31.92
2022-11-21T08:12:53.245Z,68.97
2022-11-21T08:15:57.403Z,50.35
2022-11-21T08:19:02.363Z,120.22
2022-11-21T08:22:24.946Z,161.60
2022-11-21T08:25:29.212Z,137.38
2022-11-21T08:28:33.790Z,66.43
2022-11-21T08:31:57.431Z,71.35
2022-11-21T08:35:01.565Z,39.97
2022-11-21T08:38:07.167Z,85.07
2022-11-21T08:41:32.346Z,109.90
2022-11-21T08:44:36.745Z,70.10
2022-11-21T08:47:41.324Z,68.72
2022-11-21T08:50:45.586Z,58.75
2022-11-21T08:53:49.756Z,75.70
2022-11-21T08:56:54.551Z,211.52
2022-11-21T09:00:17.704Z,159.52
2022-11-21T09:03:26.771Z,123.35
2022-11-21T09:06:36.108Z,116.20
2022-11-21T09:09:40.673Z,134.10
2022-11-21T09:12:45.149Z,188.43
2022-11-21T09:16:08.282Z,135.98
2022-11-21T09:19:12.826Z,312.98
2022-11-21T09:22:17.239Z,257.42
2022-11-21T09:25:40.600Z,227.38
2022-11-21T09:29:04.505Z,204.20
2022-11-21T09:32:11.658Z,214.05
2022-11-21T09:35:16.593Z,187.50
2022-11-21T09:38:23.993Z,172.65
2022-11-21T09:41:53.292Z,141.90
2022-11-21T09:45:01.045Z,200.35
2022-11-21T09:48:50.795Z,213.13
2022-11-21T09:51:59.431Z,324.80
2022-11-21T09:55:09.177Z,266.70
2022-11-21T09:58:26.343Z,214.38
2022-11-21T10:01:31.527Z,259.42
2022-11-21T10:04:54.882Z,241.40
2022-11-21T10:08:04.704Z,215.33
2022-11-21T10:11:25.758Z,281.48
2022-11-21T10:14:48.903Z,311.02
2022-11-21T10:18:30.510Z,340.67
2022-11-21T10:22:04.468Z,340.30
2022-11-21T10:25:27.501Z,299.73
2022-11-21T10:28:58.191Z,262.77
2022-11-21T10:32:20.321Z,287.08
2022-11-21T10:35:37.741Z,243.40
2022-11-21T10:38:44.910Z,245.85
2022-11-21T10:42:05.379Z,242.45
2022-11-21T10:45:24.181Z,215.98
2022-11-21T10:48:28.730Z,216.98
2022-11-21T10:56:15.956Z,164.73
2022-11-21T10:59:30.716Z,170.02
2022-11-21T11:02:57.572Z,107.00
2022-11-21T11:06:02.262Z,149.23
2022-11-21T11:09:24.551Z,148.50
2022-11-21T11:12:52.304Z,160.65
2022-11-21T11:16:11.278Z,137.40
2022-11-21T11:19:39.976Z,97.03
2022-11-21T11:22:45.395Z,112.40
2022-11-21T11:25:54.100Z,139.40
2022-11-21T11:29:22.426Z,230.00
2022-11-21T11:32:46.258Z,176.48
2022-11-21T11:35:51.267Z,165.38
2022-11-21T11:38:59.068Z,162.00
2022-11-21T11:42:57.474Z,171.60
2022-11-21T11:46:29.798Z,238.57
2022-11-21T11:50:16.353Z,204.52
2022-11-21T11:53:27.818Z,169.85
2022-11-21T11:56:41.604Z,198.20
2022-11-21T12:00:07.273Z,258.33
2022-11-21T12:03:33.376Z,241.65
2022-11-21T12:08:05.684Z,260.55
2022-11-21T12:11:05.270Z,237.40
2022-11-21T12:14:56.820Z,205.32
2022-11-21T12:18:22.572Z,209.55
2022-11-21T12:21:27.800Z,220.00
2022-11-21T12:24:42.525Z,239.75
2022-11-21T12:28:12.234Z,212.20
2022-11-21T12:31:24.421Z,162.35
2022-11-21T12:35:03.470Z,162.88
2022-11-21T12:39:05.777Z,152.02
2022-11-21T12:43:04.118Z,116.88
2022-11-21T12:46:24.996Z,127.72
2022-11-21T12:50:09.456Z,136.68
2022-11-21T12:54:09.866Z,152.20
2022-11-21T12:57:52.347Z,157.43
2022-11-21T13:01:15.508Z,171.63
2022-11-21T13:04:27.732Z,164.45
2022-11-21T13:07:33.713Z,145.15
2022-11-21T13:10:43.674Z,137.20
2022-11-21T13:13:52.196Z,115.10
2022-11-21T13:17:15.709Z,123.90
2022-11-21T13:20:29.376Z,141.90
2022-11-21T13:23:38.153Z,126.90
2022-11-21T13:26:49.087Z,142.82
2022-11-21T13:30:30.790Z,136.10
2022-11-21T13:33:38.281Z,167.25
2022-11-21T13:36:43.286Z,185.75
2022-11-21T13:39:48.052Z,115.53
2022-11-21T13:47:13.271Z,206.13
2022-11-21T13:51:07.413Z,124.75
2022-11-21T13:54:25.039Z,118.07
2022-11-21T13:57:52.739Z,180.32
2022-11-21T14:01:34.524Z,86.75
2022-11-21T14:04:44.695Z,95.07
2022-11-21T14:07:49.463Z,113.53
2022-11-21T14:10:55.831Z,129.95
2022-11-21T14:14:00.402Z,433.45
2022-11-21T14:17:22.913Z,101.43
2022-11-21T14:20:58.908Z,78.20
2022-11-21T14:24:12.440Z,94.82
2022-11-21T14:27:45.188Z,95.03
2022-11-21T14:30:50.783Z,95.45
2022-11-21T14:33:59.249Z,119.35
2022-11-21T14:37:07.948Z,127.75
2022-11-21T14:40:15.316Z,103.00
2022-11-21T14:43:47.099Z,132.75
2022-11-21T14:46:53.339Z,116.90
2022-11-21T14:50:54.482Z,100.75
2022-11-21T14:54:31.827Z,168.38
2022-11-21T14:57:43.778Z,144.50
2022-11-21T15:01:20.278Z,123.45
2022-11-21T15:04:37.015Z,118.75
2022-11-21T15:07:48.465Z,136.50
2022-11-21T15:10:56.397Z,88.88
2022-11-21T15:14:15.556Z,87.78
2022-11-21T15:17:23.642Z,74.80
2022-11-21T15:20:29.650Z,97.45
2022-11-21T15:23:45.048Z,98.28
2022-11-21T15:26:49.435Z,102.00
2022-11-21T15:30:34.171Z,127.88
2022-11-21T15:37:26.224Z,686.50
2022-11-21T15:40:30.788Z,359.30
2022-11-21T15:43:48.292Z,251.63
2022-11-21T15:46:53.991Z,219.23
2022-11-21T15:53:02.458Z,134.40
2022-11-21T15:56:07.124Z,83.57
2022-11-21T15:59:11.855Z,150.63
2022-11-21T16:02:16.789Z,208.13
2022-11-21T16:05:21.237Z,85.28
2022-11-21T16:08:25.540Z,89.85
2022-11-21T16:11:34.159Z,96.53
2022-11-21T16:14:38.923Z,85.75
2022-11-21T16:17:43.172Z,88.47
2022-11-21T16:20:47.474Z,88.95
2022-11-21T16:23:52.596Z,76.32
2022-11-21T16:26:58.012Z,61.95
2022-11-21T16:30:02.359Z,74.28
2022-11-21T16:33:07.469Z,77.80
2022-11-21T16:36:12.230Z,73.13
2022-11-21T16:39:18.659Z,52.53
2022-11-21T16:42:23.638Z,59.97
2022-11-21T16:45:27.949Z,56.03
2022-11-21T16:48:32.106Z,46.50
2022-11-21T16:51:38.041Z,100.43
2022-11-21T16:54:42.394Z,95.90
2022-11-21T16:57:46.628Z,48.28
2022-11-21T17:00:50.916Z,68.05
2022-11-21T17:03:55.546Z,79.72
2022-11-21T17:06:59.953Z,46.30
2022-11-21T17:10:04.237Z,64.55
2022-11-21T17:13:08.576Z,67.93
2022-11-21T17:16:14.198Z,67.60
2022-11-21T17:19:20.228Z,44.70
2022-11-21T17:22:26.302Z,42.42
2022-11-21T17:25:30.855Z,32.95
2022-11-21T17:28:37.979Z,54.63
2022-11-21T17:31:45.305Z,49.85
2022-11-21T17:34:49.762Z,44.53
2022-11-21T17:37:54.065Z,37.78
2022-11-21T17:41:07.061Z,45.28
2022-11-21T17:44:16.759Z,51.25
2022-11-21T17:47:21.259Z,53.70
2022-11-21T17:50:25.973Z,32.43
2022-11-21T17:53:37.495Z,38.45
2022-11-21T17:56:45.860Z,35.17
2022-11-21T17:59:52.482Z,39.42
2022-11-21T18:02:58.014Z,38.95
2022-11-21T18:06:08.078Z,33.75
2022-11-21T18:09:13.987Z,31.45
2022-11-21T18:12:18.274Z,38.40
2022-11-21T18:15:22.439Z,36.40
2022-11-21T18:18:28.631Z,36.38
2022-11-21T18:21:36.385Z,33.17
2022-11-21T18:24:40.702Z,26.73
2022-11-21T18:27:50.154Z,28.95
2022-11-21T18:31:26.822Z,29.90
2022-11-21T18:34:31.090Z,28.23
2022-11-21T18:37:36.309Z,33.88
2022-11-21T18:40:40.733Z,35.78
2022-11-21T18:43:47.049Z,41.63
2022-11-21T18:46:51.707Z,41.88
2022-11-21T18:49:56.370Z,47.45
2022-11-21T18:53:00.915Z,42.83
2022-11-21T18:56:13.671Z,47.57
2022-11-21T18:59:18.331Z,111.72
2022-11-21T19:02:22.475Z,38.28
2022-11-21T19:05:26.977Z,38.58
2022-11-21T19:08:31.247Z,36.75
2022-11-21T19:11:35.779Z,34.50
2022-11-21T19:14:40.066Z,36.80
2022-11-21T19:17:44.516Z,33.55
2022-11-21T19:20:49.020Z,36.47
2022-11-21T19:23:53.347Z,31.05
2022-11-21T19:26:57.965Z,28.63
2022-11-21T19:30:02.511Z,40.15
2022-11-21T19:33:07.288Z,30.05
2022-11-21T19:36:21.512Z,27.08
2022-11-21T19:39:25.995Z,25.85
2022-11-21T19:42:30.386Z,34.07
2022-11-21T19:45:37.028Z,25.45
2022-11-21T19:48:41.752Z,29.45
2022-11-21T19:51:46.413Z,32.78
2022-11-21T19:54:50.786Z,32.22
2022-11-21T19:57:55.267Z,27.60
2022-11-21T20:01:14.913Z,27.02
2022-11-21T20:04:19.145Z,19.08
2022-11-21T20:07:23.505Z,22.38
2022-11-21T20:10:27.748Z,20.45
2022-11-21T20:13:33.686Z,15.63
2022-11-21T20:16:40.737Z,18.40
2022-11-21T20:19:50.435Z,15.05
2022-11-21T20:22:55.066Z,14.35
2022-11-21T20:25:59.368Z,19.77
2022-11-21T20:29:06.052Z,24.45
2022-11-21T20:32:10.457Z,17.02
2022-11-21T20:35:14.868Z,18.63
2022-11-21T20:38:24.055Z,26.02
2022-11-21T20:41:31.401Z,20.08
2022-11-21T20:48:02.217Z,38.88
2022-11-21T20:54:35.014Z,34.42
2022-11-21T20:57:39.871Z,31.42
2022-11-21T21:00:44.332Z,38.47
2022-11-21T21:03:49.466Z,38.67
2022-11-21T21:06:53.701Z,63.60
2022-11-21T21:10:01.668Z,69.75
2022-11-21T21:13:07.013Z,65.82
2022-11-21T21:16:17.664Z,63.90
2022-11-21T21:19:22.699Z,91.85
2022-11-21T21:22:27.234Z,99.20
2022-11-21T21:25:31.485Z,58.25
2022-11-21T21:28:36.781Z,36.08
2022-11-21T21:31:46.784Z,29.95
2022-11-21T21:34:53.978Z,55.13
2022-11-21T21:37:58.304Z,61.88
2022-11-21T21:41:02.806Z,57.75
2022-11-21T21:44:07.112Z,66.72
2022-11-21T21:47:16.662Z,80.43
2022-11-21T21:50:21.131Z,83.07
2022-11-21T21:53:25.439Z,49.92
2022-11-21T21:56:30.723Z,75.32
2022-11-21T21:59:35.177Z,78.45
2022-11-21T22:02:40.750Z,92.00
2022-11-21T22:05:44.934Z,114.03
2022-11-21T22:08:50.721Z,115.00
2022-11-21T22:11:55.180Z,125.45
2022-11-21T22:14:59.840Z,160.33
2022-11-21T22:18:04.029Z,159.98
2022-11-21T22:21:29.307Z,129.18
2022-11-21T22:24:33.711Z,142.02
2022-11-21T22:27:38.114Z,125.00
2022-11-21T22:30:42.689Z,110.65
2022-11-21T22:33:48.960Z,127.55
2022-11-21T22:36:53.432Z,118.55
2022-11-21T22:39:58.073Z,175.65
2022-11-21T22:43:02.554Z,170.15
2022-11-21T22:46:07.599Z,177.15
2022-11-21T22:49:12.179Z,195.95
2022-11-21T22:52:16.362Z,181.05
2022-11-21T22:55:20.990Z,136.38
2022-11-21T22:58:25.638Z,163.90
2022-11-21T23:01:30.154Z,161.65
2022-11-21T23:04:35.063Z,120.00
2022-11-21T23:07:39.806Z,114.43
2022-11-21T23:10:44.088Z,121.07
2022-11-21T23:13:49.305Z,134.52
2022-11-21T23:16:53.782Z,109.10
2022-11-21T23:19:58.129Z,124.72
2022-11-21T23:23:02.691Z,102.95
2022-11-21T23:26:07.684Z,126.90
2022-11-21T23:29:11.980Z,102.28
2022-11-21T23:32:16.450Z,99.53
2022-11-21T23:35:21.092Z,119.20
2022-11-21T23:38:25.418Z,33.80
2022-11-21T23:41:29.934Z,21.63
2022-11-21T23:44:34.476Z,16.35
2022-11-21T23:47:39.079Z,10.15
2022-11-21T23:50:43.224Z,14.50
2022-11-21T23:53:47.590Z,23.02
2022-11-21T23:56:51.822Z,17.27
2022-11-21T23:59:56.591Z,40.05
